Time;durP1;ratioP1;P1;durP2;ratioP2;P2;SDS_P1;SDS_P2;PMS_P1;PMS_P2;Temp;Humidity;BMP_temperature;BMP_pressure;BME280_temperature;BME280_humidity;BME280_pressure;Samples;Min_cycle;Max_cycle;Signal;HPM_P1;HPM_P2
2021/09/15 00:01:15;;;;;;;33.30;24.08;;;12.30;99.90;;;;;;5092217;28;20024;-77
2021/09/15 00:03:41;;;;;;;32.67;24.75;;;12.30;99.90;;;;;;5078312;28;20024;-77
2021/09/15 00:06:07;;;;;;;33.85;24.95;;;12.40;99.90;;;;;;5087427;28;20029;-77
2021/09/15 00:08:33;;;;;;;39.67;26.45;;;12.40;99.90;;;;;;5076686;28;20024;-77
2021/09/15 00:11:00;;;;;;;34.65;25.15;;;12.40;99.90;;;;;;5092009;28;20028;-77
2021/09/15 00:13:27;;;;;;;39.08;26.95;;;12.50;99.90;;;;;;5089272;28;20099;-77
2021/09/15 00:15:52;;;;;;;37.30;25.45;;;12.50;99.90;;;;;;5073516;28;20056;-77
2021/09/15 00:18:18;;;;;;;33.63;26.23;;;12.50;99.90;;;;;;5073720;28;20071;-77
2021/09/15 00:20:44;;;;;;;37.03;25.33;;;12.50;99.90;;;;;;5079830;28;20100;-77
2021/09/15 00:23:09;;;;;;;35.42;25.90;;;12.50;99.90;;;;;;5072773;28;20020;-77
2021/09/15 00:25:35;;;;;;;33.28;24.58;;;12.50;99.90;;;;;;5090398;28;20032;-77
2021/09/15 00:28:01;;;;;;;30.98;21.08;;;12.40;99.90;;;;;;5091353;28;20110;-77
2021/09/15 00:30:27;;;;;;;30.90;22.10;;;12.30;99.90;;;;;;5082329;28;20079;-77
2021/09/15 00:32:52;;;;;;;29.90;21.38;;;12.30;99.90;;;;;;5082411;28;20028;-77
2021/09/15 00:35:18;;;;;;;32.53;24.45;;;12.20;99.90;;;;;;5090512;28;20047;-76
2021/09/15 00:37:43;;;;;;;41.40;27.92;;;12.20;99.90;;;;;;5093206;28;20485;-78
2021/09/15 00:40:10;;;;;;;39.58;26.85;;;12.20;99.90;;;;;;5091397;28;20039;-76
2021/09/15 00:42:35;;;;;;;41.65;26.23;;;12.20;99.90;;;;;;5075486;28;20535;-76
2021/09/15 00:45:02;;;;;;;43.88;26.92;;;12.20;99.90;;;;;;5072769;28;20115;-76
2021/09/15 00:47:28;;;;;;;41.22;27.73;;;12.20;99.90;;;;;;5072935;28;20031;-77
2021/09/15 00:49:53;;;;;;;34.50;24.40;;;12.20;99.90;;;;;;5075611;28;20032;-77
2021/09/15 00:52:19;;;;;;;33.67;23.40;;;12.20;99.90;;;;;;5083190;28;20020;-76
2021/09/15 00:54:45;;;;;;;36.30;24.80;;;12.10;99.90;;;;;;5087393;28;20432;-76
2021/09/15 00:57:10;;;;;;;31.98;24.17;;;12.10;99.90;;;;;;5087786;28;20068;-76
2021/09/15 00:59:36;;;;;;;37.60;25.83;;;12.10;99.90;;;;;;5073647;28;20036;-77
2021/09/15 01:02:02;;;;;;;38.38;26.73;;;12.10;99.90;;;;;;5072582;28;20027;-77
2021/09/15 01:04:28;;;;;;;39.88;27.00;;;12.10;99.90;;;;;;5075189;28;20031;-77
2021/09/15 01:06:54;;;;;;;32.33;24.65;;;12.10;99.90;;;;;;5080381;28;20039;-77
2021/09/15 01:09:20;;;;;;;33.35;23.90;;;12.10;99.90;;;;;;5091572;28;20024;-76
2021/09/15 01:11:47;;;;;;;36.65;25.27;;;12.10;99.90;;;;;;5092769;28;20012;-77
2021/09/15 01:14:13;;;;;;;38.08;24.58;;;12.10;99.90;;;;;;5090995;28;20044;-77
2021/09/15 01:16:59;;;;;;;36.78;25.77;;;12.00;99.90;;;;;;5075857;28;20028;-77
2021/09/15 01:19:25;;;;;;;39.50;26.58;;;12.00;99.90;;;;;;5074281;28;20075;-76
2021/09/15 01:21:53;;;;;;;40.80;27.25;;;12.00;99.90;;;;;;5071297;28;20471;-77
2021/09/15 01:24:21;;;;;;;40.97;27.05;;;12.00;99.90;;;;;;5074025;28;20043;-77
2021/09/15 01:26:47;;;;;;;33.22;22.10;;;12.00;99.90;;;;;;5091409;28;20393;-77
2021/09/15 01:29:21;;;;;;;31.88;23.42;;;12.00;99.90;;;;;;5089767;28;20043;-77
2021/09/15 01:32:04;;;;;;;30.63;21.13;;;12.00;99.90;;;;;;5092550;28;20024;-77
2021/09/15 01:34:36;;;;;;;35.75;25.65;;;11.90;99.90;;;;;;5090258;28;20517;-77
2021/09/15 01:37:03;;;;;;;36.35;25.13;;;11.90;99.90;;;;;;5072374;28;20032;-77
2021/09/15 01:39:29;;;;;;;39.15;24.65;;;11.80;99.90;;;;;;5072534;28;20043;-76
2021/09/15 01:42:03;;;;;;;32.85;22.65;;;11.80;99.90;;;;;;5072246;28;20025;-77
2021/09/15 01:44:43;;;;;;;32.55;23.23;;;11.80;99.90;;;;;;5072644;28;20043;-77
2021/09/15 01:47:11;;;;;;;35.38;22.88;;;11.70;99.90;;;;;;5092377;28;20111;-77
2021/09/15 01:49:38;;;;;;;32.65;21.92;;;11.70;99.90;;;;;;5091290;28;20052;-77
2021/09/15 01:52:04;;;;;;;35.05;23.27;;;11.60;99.90;;;;;;5072785;28;20408;-77
2021/09/15 01:54:31;;;;;;;38.70;25.02;;;11.60;99.90;;;;;;5072311;28;20052;-77
2021/09/15 01:56:56;;;;;;;34.22;22.60;;;11.50;99.90;;;;;;5090945;28;20035;-77
2021/09/15 01:59:23;;;;;;;34.67;23.08;;;11.50;99.90;;;;;;5089082;28;20035;-76
2021/09/15 02:01:48;;;;;;;40.97;25.05;;;11.50;99.90;;;;;;5092547;28;20389;-77
2021/09/15 02:04:14;;;;;;;40.90;22.27;;;11.50;99.90;;;;;;5093450;28;20030;-77
2021/09/15 02:06:40;;;;;;;33.33;21.45;;;11.40;99.90;;;;;;5094846;28;20008;-77
2021/09/15 02:09:06;;;;;;;31.75;21.92;;;11.40;99.90;;;;;;5083182;28;20032;-77
2021/09/15 02:11:34;;;;;;;37.33;25.25;;;11.30;99.90;;;;;;5074449;28;20025;-77
2021/09/15 02:14:00;;;;;;;36.25;23.10;;;11.30;99.90;;;;;;5077288;28;20104;-77
2021/09/15 02:16:26;;;;;;;37.38;22.60;;;11.30;99.90;;;;;;5075692;28;20055;-77
2021/09/15 02:18:52;;;;;;;32.42;22.52;;;11.30;99.90;;;;;;5085101;28;20042;-77
2021/09/15 02:21:18;;;;;;;39.00;23.67;;;11.20;99.90;;;;;;5094566;28;20386;-77
2021/09/15 02:23:44;;;;;;;43.20;26.27;;;11.20;99.90;;;;;;5092220;28;20031;-77
2021/09/15 02:26:11;;;;;;;39.92;24.10;;;11.20;99.90;;;;;;5094302;28;20016;-77
2021/09/15 02:28:37;;;;;;;37.47;23.38;;;11.20;99.90;;;;;;5086443;28;20470;-77
2021/09/15 02:31:04;;;;;;;32.50;22.67;;;11.10;99.90;;;;;;5075229;28;20102;-76
2021/09/15 02:33:30;;;;;;;32.53;22.13;;;11.10;99.90;;;;;;5088403;28;20024;-76
2021/09/15 02:35:56;;;;;;;28.77;21.25;;;11.10;99.90;;;;;;5073933;28;20025;-77
2021/09/15 02:38:22;;;;;;;32.38;22.13;;;11.00;99.90;;;;;;5078265;28;20047;-77
2021/09/15 02:40:47;;;;;;;34.63;22.33;;;11.10;99.90;;;;;;5086738;28;20421;-77
2021/09/15 02:43:13;;;;;;;35.03;24.50;;;11.10;99.90;;;;;;5076524;28;21329;-77
2021/09/15 02:45:39;;;;;;;38.97;26.08;;;11.10;99.90;;;;;;5089631;28;20423;-76
2021/09/15 02:48:05;;;;;;;40.05;25.02;;;11.10;99.90;;;;;;5093529;28;20425;-77
2021/09/15 02:50:31;;;;;;;32.22;23.10;;;11.20;99.90;;;;;;5090594;28;20386;-77
2021/09/15 02:52:57;;;;;;;30.15;21.92;;;11.10;99.90;;;;;;5074784;28;20021;-77
2021/09/15 02:55:23;;;;;;;24.33;19.80;;;11.00;99.90;;;;;;5094911;28;20118;-76
2021/09/15 02:57:49;;;;;;;30.73;21.73;;;11.00;99.90;;;;;;5075697;28;20031;-76
2021/09/15 03:00:15;;;;;;;30.65;21.38;;;11.00;99.90;;;;;;5073972;28;20405;-76
2021/09/15 03:02:41;;;;;;;28.05;19.15;;;11.00;99.90;;;;;;5074858;28;20071;-76
2021/09/15 03:05:07;;;;;;;32.00;21.92;;;11.00;99.90;;;;;;5075484;28;20035;-77
2021/09/15 03:07:33;;;;;;;29.63;19.98;;;10.90;99.90;;;;;;5093674;28;20161;-78
2021/09/15 03:09:58;;;;;;;25.85;19.38;;;10.90;99.90;;;;;;5091420;28;20118;-77
2021/09/15 03:12:24;;;;;;;25.05;19.23;;;10.90;99.90;;;;;;5092389;28;20105;-77
2021/09/15 03:14:50;;;;;;;25.15;18.33;;;10.80;99.90;;;;;;5085170;28;20058;-77
2021/09/15 03:17:15;;;;;;;26.20;18.90;;;10.80;99.90;;;;;;5094767;28;20500;-77
2021/09/15 03:19:41;;;;;;;32.10;19.63;;;10.80;99.90;;;;;;5092400;28;20047;-77
2021/09/15 03:22:07;;;;;;;29.98;20.17;;;10.80;99.90;;;;;;5094452;28;20032;-76
2021/09/15 03:24:33;;;;;;;30.98;19.63;;;10.80;99.90;;;;;;5092549;28;20027;-76
2021/09/15 03:27:03;;;;;;;32.38;19.40;;;10.70;99.90;;;;;;5081559;28;20020;-77
2021/09/15 03:29:29;;;;;;;26.52;20.05;;;10.70;99.90;;;;;;5077239;28;20033;-76
2021/09/15 03:31:54;;;;;;;30.98;20.65;;;10.70;99.90;;;;;;5075631;28;20025;-76
2021/09/15 03:34:20;;;;;;;28.33;19.45;;;10.70;99.90;;;;;;5088392;28;20118;-76
2021/09/15 03:36:46;;;;;;;29.48;22.05;;;10.60;99.90;;;;;;5093928;28;20024;-76
2021/09/15 03:39:14;;;;;;;29.75;20.20;;;10.60;99.90;;;;;;5082284;28;20036;-76
2021/09/15 03:41:40;;;;;;;27.17;18.10;;;10.70;99.90;;;;;;5093025;28;20023;-76
2021/09/15 03:44:05;;;;;;;22.50;17.80;;;10.60;99.90;;;;;;5091713;28;20023;-76
2021/09/15 03:46:31;;;;;;;30.35;20.20;;;10.60;99.90;;;;;;5077062;28;20070;-76
2021/09/15 03:48:57;;;;;;;36.75;24.42;;;10.60;99.90;;;;;;5075700;28;20390;-77
2021/09/15 03:51:22;;;;;;;51.65;28.10;;;10.70;99.90;;;;;;5092019;28;20032;-76
2021/09/15 03:53:48;;;;;;;33.10;21.17;;;10.70;99.90;;;;;;5087785;28;20039;-77
2021/09/15 03:56:14;;;;;;;32.20;20.55;;;10.70;99.90;;;;;;5092663;28;20031;-76
2021/09/15 03:58:39;;;;;;;37.53;22.20;;;10.60;99.90;;;;;;5088577;28;20418;-76
2021/09/15 04:01:05;;;;;;;43.47;22.85;;;10.70;99.90;;;;;;5092583;28;20024;-77
2021/09/15 04:03:31;;;;;;;44.33;23.58;;;10.70;99.90;;;;;;5092602;28;20027;-77
2021/09/15 04:05:56;;;;;;;32.97;19.83;;;10.60;99.90;;;;;;5093686;28;20027;-76
2021/09/15 04:08:22;;;;;;;33.38;21.02;;;10.60;99.90;;;;;;5092068;28;20031;-76
2021/09/15 04:10:47;;;;;;;33.20;22.23;;;10.60;99.90;;;;;;5078665;28;20056;-77
2021/09/15 04:13:13;;;;;;;35.75;23.08;;;10.70;99.90;;;;;;5073101;28;20111;-77
2021/09/15 04:15:39;;;;;;;38.38;24.13;;;10.70;99.90;;;;;;5092208;28;20032;-77
2021/09/15 04:18:05;;;;;;;33.38;20.65;;;10.70;99.90;;;;;;5091386;28;20106;-78
2021/09/15 04:20:31;;;;;;;38.85;25.63;;;10.70;99.90;;;;;;5087947;28;20527;-77
2021/09/15 04:22:56;;;;;;;40.10;27.42;;;10.80;99.90;;;;;;5073133;28;20367;-77
2021/09/15 04:33:34;;;;;;;40.17;27.52;;;11.00;99.90;;;;;;5087432;28;20035;-76
2021/09/15 04:36:00;;;;;;;42.55;25.90;;;11.00;99.90;;;;;;5092075;28;20382;-77
2021/09/15 04:38:25;;;;;;;42.70;26.08;;;11.10;99.90;;;;;;5075495;28;20032;-77
2021/09/15 04:40:51;;;;;;;43.88;26.27;;;11.10;99.90;;;;;;5091975;28;20034;-77
2021/09/15 04:43:17;;;;;;;38.53;25.40;;;11.20;99.90;;;;;;5087508;28;20424;-77
2021/09/15 04:45:43;;;;;;;40.63;27.70;;;11.20;99.90;;;;;;5071709;28;20394;-77
2021/09/15 04:48:08;;;;;;;41.70;26.25;;;11.30;99.90;;;;;;5072930;28;20028;-77
2021/09/15 04:50:34;;;;;;;36.88;25.13;;;11.30;99.90;;;;;;5091805;28;20039;-77
2021/09/15 04:52:59;;;;;;;37.88;23.95;;;11.40;99.90;;;;;;5085477;28;20024;-77
2021/09/15 04:55:25;;;;;;;35.63;24.42;;;11.40;99.90;;;;;;5083550;28;20035;-77
2021/09/15 04:57:51;;;;;;;29.52;21.02;;;11.40;99.90;;;;;;5091862;28;20028;-77
2021/09/15 05:00:16;;;;;;;32.55;22.13;;;11.40;99.90;;;;;;5090026;28;20031;-77
2021/09/15 05:02:42;;;;;;;30.25;22.05;;;11.50;99.90;;;;;;5092951;28;20405;-76
2021/09/15 05:05:08;;;;;;;36.95;23.63;;;11.50;99.90;;;;;;5091188;28;20485;-77
2021/09/15 05:07:34;;;;;;;29.25;21.65;;;11.50;99.90;;;;;;5092381;28;20059;-78
2021/09/15 05:09:59;;;;;;;31.85;22.63;;;11.50;99.90;;;;;;5084928;28;20546;-77
2021/09/15 05:12:25;;;;;;;30.30;20.75;;;11.60;99.90;;;;;;5089811;28;20023;-77
2021/09/15 05:14:50;;;;;;;30.10;22.10;;;11.60;99.90;;;;;;5091819;28;20039;-76
2021/09/15 05:17:16;;;;;;;30.27;20.08;;;11.70;99.90;;;;;;5092672;28;20024;-76
2021/09/15 05:19:42;;;;;;;30.05;21.98;;;11.70;99.90;;;;;;5081729;28;20123;-78
2021/09/15 05:22:07;;;;;;;28.00;19.33;;;11.80;99.90;;;;;;5070080;28;20040;-78
2021/09/15 05:24:33;;;;;;;28.23;20.77;;;11.90;99.90;;;;;;5080024;28;20024;-77
2021/09/15 05:26:59;;;;;;;34.47;24.35;;;12.00;99.90;;;;;;5089889;28;20024;-78
2021/09/15 05:29:24;;;;;;;32.67;24.25;;;12.20;99.90;;;;;;5089238;28;20032;-77
2021/09/15 05:31:50;;;;;;;34.97;24.65;;;12.30;99.90;;;;;;5088481;28;20055;-78
2021/09/15 05:34:16;;;;;;;34.78;23.67;;;12.40;99.90;;;;;;5089061;28;20035;-76
2021/09/15 05:36:41;;;;;;;33.80;24.77;;;12.60;99.90;;;;;;5089026;28;20404;-76
2021/09/15 05:39:07;;;;;;;46.05;28.83;;;12.80;99.90;;;;;;5093068;28;20032;-77
2021/09/15 05:41:33;;;;;;;37.85;26.65;;;13.00;99.90;;;;;;5092232;28;20032;-77
2021/09/15 05:43:58;;;;;;;35.92;26.35;;;13.20;99.90;;;;;;5089722;28;20431;-77
2021/09/15 05:46:24;;;;;;;38.75;27.48;;;13.30;99.90;;;;;;5091833;28;20031;-77
2021/09/15 05:48:49;;;;;;;40.10;27.85;;;13.50;99.90;;;;;;5085252;28;20227;-77
2021/09/15 05:51:15;;;;;;;36.00;27.17;;;13.70;99.90;;;;;;5069825;28;20032;-77
2021/09/15 05:53:41;;;;;;;36.70;26.02;;;13.80;99.90;;;;;;5085175;28;20463;-77
2021/09/15 05:56:06;;;;;;;34.92;24.85;;;14.00;99.90;;;;;;5087302;28;20059;-78
2021/09/15 05:58:32;;;;;;;36.00;25.38;;;14.10;99.90;;;;;;5082826;28;20029;-78
2021/09/15 06:00:57;;;;;;;36.88;25.23;;;14.30;99.90;;;;;;5078756;28;20036;-78
2021/09/15 06:03:23;;;;;;;33.30;25.20;;;14.40;99.90;;;;;;5084486;28;20488;-77
2021/09/15 06:05:49;;;;;;;36.00;25.75;;;14.50;99.90;;;;;;5086980;28;20032;-78
2021/09/15 06:08:14;;;;;;;34.08;26.10;;;14.60;99.90;;;;;;5085996;28;20024;-78
2021/09/15 06:10:40;;;;;;;30.92;23.67;;;14.80;99.90;;;;;;5086801;28;20040;-77
2021/09/15 06:13:06;;;;;;;33.83;24.23;;;14.90;99.90;;;;;;5090842;28;20073;-77
2021/09/15 06:15:31;;;;;;;31.83;25.23;;;15.00;99.90;;;;;;5090005;28;20115;-77
2021/09/15 06:17:57;;;;;;;30.27;23.65;;;15.10;99.90;;;;;;5075380;28;20024;-77
2021/09/15 06:20:23;;;;;;;37.08;22.40;;;15.30;99.90;;;;;;5094599;28;20046;-77
2021/09/15 06:22:48;;;;;;;34.83;24.83;;;15.40;99.90;;;;;;5099922;28;20020;-78
2021/09/15 06:25:15;;;;;;;31.73;22.40;;;15.50;99.90;;;;;;5091167;28;20032;-78
2021/09/15 06:27:42;;;;;;;29.05;21.85;;;15.60;99.90;;;;;;5093931;28;20082;-77
2021/09/15 06:30:08;;;;;;;29.02;22.02;;;15.70;99.90;;;;;;5081239;28;20120;-77
2021/09/15 06:32:35;;;;;;;28.85;22.10;;;15.70;99.90;;;;;;5080837;28;20020;-77
2021/09/15 06:35:01;;;;;;;29.00;22.48;;;15.80;99.90;;;;;;5091412;28;20051;-76
2021/09/15 06:37:28;;;;;;;28.35;20.60;;;15.80;99.90;;;;;;5093423;28;20024;-77
2021/09/15 06:39:53;;;;;;;29.65;23.33;;;15.90;99.90;;;;;;5090231;28;20659;-76
2021/09/15 06:42:19;;;;;;;30.90;22.95;;;15.90;99.90;;;;;;5071977;28;20016;-77
2021/09/15 06:44:45;;;;;;;30.92;22.40;;;16.10;99.90;;;;;;5086357;28;20027;-77
2021/09/15 06:47:10;;;;;;;29.95;23.98;;;16.20;99.90;;;;;;5092807;28;20020;-76
2021/09/15 06:49:36;;;;;;;28.27;22.60;;;16.30;99.90;;;;;;5092521;28;20035;-76
2021/09/15 06:52:02;;;;;;;29.08;22.27;;;16.40;99.90;;;;;;5093967;28;20386;-76
2021/09/15 06:54:27;;;;;;;30.42;22.15;;;16.50;99.90;;;;;;5093067;28;20028;-76
2021/09/15 06:56:53;;;;;;;30.20;21.70;;;16.60;99.90;;;;;;5089867;28;20898;-76
2021/09/15 06:59:19;;;;;;;26.02;21.52;;;16.70;99.90;;;;;;5071685;28;20040;-76
2021/09/15 07:01:45;;;;;;;29.33;20.55;;;16.80;99.90;;;;;;5072979;28;20021;-76
2021/09/15 07:04:10;;;;;;;32.08;22.25;;;16.90;99.90;;;;;;5073235;28;20021;-76
2021/09/15 07:06:36;;;;;;;29.98;22.90;;;17.00;99.90;;;;;;5090260;28;20024;-77
2021/09/15 07:09:02;;;;;;;31.23;23.48;;;17.10;99.90;;;;;;5074510;28;20474;-76
2021/09/15 07:11:27;;;;;;;28.95;20.48;;;17.30;99.90;;;;;;5091791;28;20035;-76
2021/09/15 07:13:53;;;;;;;28.35;21.73;;;17.40;99.90;;;;;;5091416;28;20078;-76
2021/09/15 07:16:18;;;;;;;25.95;18.75;;;17.60;99.90;;;;;;5092734;28;20443;-76
2021/09/15 07:18:44;;;;;;;30.45;20.85;;;17.70;99.90;;;;;;5091230;28;20127;-77
2021/09/15 07:21:12;;;;;;;25.55;19.92;;;17.80;99.90;;;;;;5093277;28;20381;-76
2021/09/15 07:23:38;;;;;;;23.55;19.50;;;18.00;99.90;;;;;;5092060;28;20432;-77
2021/09/15 07:26:04;;;;;;;25.45;19.63;;;18.10;99.90;;;;;;5084814;28;20024;-76
2021/09/15 07:28:30;;;;;;;25.42;18.83;;;18.20;99.90;;;;;;5073114;28;20021;-76
2021/09/15 07:30:55;;;;;;;24.20;18.05;;;18.20;99.90;;;;;;5072977;28;20017;-76
2021/09/15 07:33:21;;;;;;;24.45;18.42;;;18.40;99.90;;;;;;5082996;28;20032;-76
2021/09/15 07:35:47;;;;;;;24.55;17.05;;;18.50;99.90;;;;;;5083323;28;20093;-76
2021/09/15 07:38:12;;;;;;;22.58;17.52;;;18.50;99.90;;;;;;5084416;28;20452;-77
2021/09/15 07:40:38;;;;;;;24.02;17.58;;;18.60;99.90;;;;;;5074040;28;20029;-76
2021/09/15 07:43:03;;;;;;;22.50;17.70;;;18.70;99.90;;;;;;5089319;28;20442;-78
2021/09/15 07:45:29;;;;;;;22.10;17.75;;;18.80;99.90;;;;;;5092953;28;20125;-77
2021/09/15 07:47:55;;;;;;;20.15;16.70;;;18.80;99.90;;;;;;5077300;28;20028;-76
2021/09/15 07:50:22;;;;;;;22.05;16.67;;;18.90;99.90;;;;;;5073949;28;20025;-76
2021/09/15 07:52:47;;;;;;;26.85;17.30;;;19.00;99.90;;;;;;5073917;28;20020;-77
2021/09/15 07:55:13;;;;;;;20.63;16.73;;;19.10;99.90;;;;;;5083004;28;20043;-76
2021/09/15 07:57:43;;;;;;;20.08;15.38;;;19.20;99.90;;;;;;5093772;28;20036;-76
2021/09/15 08:00:10;;;;;;;21.95;16.45;;;19.20;99.90;;;;;;5091984;28;20032;-76
2021/09/15 08:02:36;;;;;;;19.92;15.02;;;19.30;99.90;;;;;;5092647;28;20042;-77
2021/09/15 08:05:02;;;;;;;17.30;14.15;;;19.40;99.90;;;;;;5084675;28;20478;-76
2021/09/15 08:07:28;;;;;;;20.50;16.42;;;19.50;99.90;;;;;;5089869;28;20478;-77
2021/09/15 08:09:53;;;;;;;19.95;15.52;;;19.70;99.90;;;;;;5073453;28;20042;-76
2021/09/15 08:12:19;;;;;;;17.75;15.43;;;19.80;99.90;;;;;;5078782;28;20056;-76
2021/09/15 08:14:44;;;;;;;19.13;15.35;;;19.90;99.90;;;;;;5093616;28;20063;-76
2021/09/15 08:17:10;;;;;;;17.77;14.82;;;20.00;99.90;;;;;;5092342;28;20046;-77
2021/09/15 08:19:36;;;;;;;21.55;14.55;;;20.00;99.90;;;;;;5091921;28;20044;-76
2021/09/15 08:22:01;;;;;;;16.60;13.52;;;20.10;99.90;;;;;;5091022;28;20020;-77
2021/09/15 08:24:27;;;;;;;15.98;13.57;;;20.30;99.90;;;;;;5071991;28;20386;-76
2021/09/15 08:26:53;;;;;;;18.63;13.38;;;20.40;99.90;;;;;;5073198;28;20052;-77
2021/09/15 08:29:18;;;;;;;17.17;14.40;;;20.40;99.90;;;;;;5071964;28;20430;-76
2021/09/15 08:31:44;;;;;;;16.90;13.25;;;20.50;97.20;;;;;;5073271;28;20035;-77
2021/09/15 08:34:10;;;;;;;16.50;13.45;;;20.50;96.20;;;;;;5080973;28;20035;-78
2021/09/15 08:36:35;;;;;;;16.52;12.68;;;20.60;95.20;;;;;;5091987;28;20381;-76
2021/09/15 08:39:02;;;;;;;16.17;13.35;;;20.70;95.60;;;;;;5083930;28;20174;-77
2021/09/15 08:41:27;;;;;;;16.27;12.27;;;20.80;96.70;;;;;;5072963;28;20027;-76
2021/09/15 08:43:53;;;;;;;13.05;11.65;;;20.80;93.70;;;;;;5072970;28;20017;-78
2021/09/15 08:46:21;;;;;;;17.55;12.38;;;20.90;92.40;;;;;;5071700;28;20036;-77
2021/09/15 08:48:47;;;;;;;20.17;13.63;;;21.00;92.70;;;;;;5074288;28;20032;-76
2021/09/15 08:51:17;;;;;;;16.02;12.63;;;21.10;92.00;;;;;;5088585;28;20082;-76
2021/09/15 08:53:44;;;;;;;14.10;11.40;;;21.20;92.80;;;;;;5077166;28;20024;-77
2021/09/15 08:56:12;;;;;;;13.23;11.20;;;21.20;88.70;;;;;;5073554;28;20462;-77
2021/09/15 08:58:38;;;;;;;15.38;12.35;;;21.20;86.60;;;;;;5093048;28;20527;-77
2021/09/15 09:01:19;;;;;;;14.05;11.50;;;21.20;87.30;;;;;;5085123;28;20021;-77
2021/09/15 09:03:48;;;;;;;16.77;12.50;;;21.20;89.50;;;;;;5071532;28;20025;-77
2021/09/15 09:06:21;;;;;;;14.48;12.05;;;21.30;91.20;;;;;;5071083;28;20074;-77
2021/09/15 09:08:52;;;;;;;14.23;12.73;;;21.40;90.70;;;;;;5071474;28;20021;-77
2021/09/15 09:11:21;;;;;;;19.15;13.70;;;21.40;91.00;;;;;;5082516;28;20020;-77
2021/09/15 09:13:51;;;;;;;14.13;12.52;;;21.40;90.60;;;;;;5095150;28;20047;-77
2021/09/15 09:16:35;;;;;;;15.32;12.52;;;21.50;89.20;;;;;;5079626;28;20445;-77
2021/09/15 09:19:04;;;;;;;17.63;12.05;;;21.60;92.70;;;;;;5088183;28;20039;-77
2021/09/15 09:21:33;;;;;;;15.68;11.70;;;21.60;86.30;;;;;;5077113;28;20032;-76
2021/09/15 09:24:01;;;;;;;18.85;13.52;;;21.80;88.50;;;;;;5083459;28;20401;-77
2021/09/15 09:26:54;;;;;;;13.15;11.82;;;21.80;89.70;;;;;;5092285;28;20029;-77
2021/09/15 09:29:21;;;;;;;15.25;12.85;;;22.00;88.80;;;;;;5069418;28;20462;-77
2021/09/15 09:32:10;;;;;;;14.32;11.68;;;21.90;85.00;;;;;;5075690;28;20020;-76
2021/09/15 09:34:41;;;;;;;13.68;11.93;;;22.00;88.70;;;;;;5095415;28;20024;-77
2021/09/15 09:37:13;;;;;;;14.68;11.38;;;21.90;84.30;;;;;;5096705;28;20028;-77
2021/09/15 09:39:38;;;;;;;16.27;12.25;;;21.90;85.60;;;;;;5081253;28;20040;-77
2021/09/15 09:42:24;;;;;;;13.30;11.90;;;22.00;87.00;;;;;;5084154;28;20384;-77
2021/09/15 09:44:54;;;;;;;15.57;11.88;;;22.00;82.00;;;;;;5095172;28;20025;-77
2021/09/15 09:47:24;;;;;;;16.13;11.30;;;22.10;89.00;;;;;;5094578;28;20389;-77
2021/09/15 09:50:08;;;;;;;11.23;9.77;;;22.10;81.60;;;;;;5095160;28;20028;-76
2021/09/15 09:53:09;;;;;;;15.35;11.20;;;22.20;78.80;;;;;;5112037;28;20543;-77
2021/09/15 09:55:37;;;;;;;12.88;10.60;;;22.30;79.80;;;;;;5037129;28;20107;-77
2021/09/15 09:58:04;;;;;;;10.95;9.85;;;22.50;81.00;;;;;;5066848;28;20054;-77
2021/09/15 10:00:31;;;;;;;13.75;8.95;;;22.60;77.70;;;;;;5075977;28;20032;-77
2021/09/15 10:03:02;;;;;;;12.88;10.65;;;22.70;72.30;;;;;;5075905;28;20016;-77
2021/09/15 10:05:27;;;;;;;11.38;9.63;;;22.80;75.40;;;;;;5074662;28;20062;-77
2021/09/15 10:07:53;;;;;;;13.15;10.18;;;22.80;72.70;;;;;;5074517;28;20030;-77
2021/09/15 10:10:23;;;;;;;21.20;12.88;;;22.90;71.20;;;;;;5074528;28;20486;-77
2021/09/15 10:12:55;;;;;;;10.68;9.57;;;23.00;73.80;;;;;;5075741;28;20020;-77
2021/09/15 10:15:21;;;;;;;;;;;22.90;68.20;;;;;;5099392;28;20473;-77
2021/09/15 10:17:53;;;;;;;16.88;12.10;;;23.00;68.60;;;;;;5094641;28;19904;-78
2021/09/15 10:20:29;;;;;;;12.85;10.27;;;23.10;71.00;;;;;;5106871;28;20085;-77
2021/09/15 10:22:56;;;;;;;14.30;10.60;;;23.20;71.80;;;;;;5073771;28;20355;-77
2021/09/15 10:25:39;;;;;;;9.93;8.95;;;23.20;67.40;;;;;;5075573;28;20141;-77
2021/09/15 10:28:10;;;;;;;10.00;9.00;;;23.00;65.50;;;;;;5090725;28;20046;-77
2021/09/15 10:30:54;;;;;;;10.75;9.65;;;23.10;66.30;;;;;;5111409;28;20039;-77
2021/09/15 10:33:35;;;;;;;10.57;9.23;;;23.10;66.40;;;;;;5097755;28;20020;-77
2021/09/15 10:36:22;;;;;;;10.15;9.07;;;23.00;64.50;;;;;;5075707;28;20024;-77
2021/09/15 10:39:01;;;;;;;14.23;9.15;;;23.10;68.50;;;;;;5090314;28;20131;-77
2021/09/15 10:41:33;;;;;;;11.27;9.10;;;23.20;70.60;;;;;;5090876;28;20024;-77
2021/09/15 10:44:13;;;;;;;12.63;9.95;;;23.10;65.80;;;;;;5094208;28;20051;-78
2021/09/15 10:46:40;;;;;;;14.52;10.23;;;23.20;69.50;;;;;;5108891;28;20031;-77
2021/09/15 10:49:39;;;;;;;11.95;10.18;;;23.30;68.40;;;;;;5075046;28;20470;-77
2021/09/15 10:52:10;;;;;;;13.10;9.68;;;23.30;68.10;;;;;;5072621;28;20033;-77
2021/09/15 10:54:42;;;;;;;11.90;9.73;;;23.40;68.20;;;;;;5073700;28;20024;-77
2021/09/15 10:57:16;;;;;;;10.57;9.43;;;23.50;66.10;;;;;;5082089;28;20390;-77
2021/09/15 11:00:10;;;;;;;14.38;9.95;;;23.50;64.00;;;;;;5095760;28;20163;-77
2021/09/15 11:02:37;;;;;;;12.85;9.80;;;23.40;65.40;;;;;;5093112;28;20162;-77
2021/09/15 11:05:24;;;;;;;13.35;9.50;;;23.40;64.70;;;;;;5104742;28;20111;-77
2021/09/15 11:07:50;;;;;;;15.40;9.57;;;23.40;65.10;;;;;;5074763;28;20024;-77
2021/09/15 11:10:36;;;;;;;11.73;8.52;;;23.40;63.10;;;;;;5073347;28;20032;-77
2021/09/15 11:13:09;;;;;;;11.15;9.95;;;23.40;61.80;;;;;;5073422;28;20090;-77
2021/09/15 11:15:49;;;;;;;13.32;9.60;;;23.50;64.40;;;;;;5086917;28;20028;-77
2021/09/15 11:18:27;;;;;;;12.57;9.52;;;23.50;62.10;;;;;;5094634;28;20020;-77
2021/09/15 11:20:57;;;;;;;10.90;9.70;;;23.60;66.50;;;;;;5109466;28;20040;-77
2021/09/15 11:23:28;;;;;;;10.05;8.93;;;23.60;65.50;;;;;;5106473;28;20077;-78
2021/09/15 11:25:54;;;;;;;10.93;9.45;;;23.60;65.30;;;;;;5082350;28;20024;-77
2021/09/15 11:28:23;;;;;;;10.95;8.45;;;23.70;63.30;;;;;;5084443;28;20457;-77
2021/09/15 11:30:51;;;;;;;11.75;8.50;;;23.70;62.90;;;;;;5072810;28;20021;-77
2021/09/15 11:33:29;;;;;;;9.57;8.30;;;23.70;63.50;;;;;;5087054;28;20035;-77
2021/09/15 11:36:03;;;;;;;12.52;8.40;;;23.70;65.60;;;;;;5092103;28;20020;-77
2021/09/15 11:38:32;;;;;;;11.95;8.50;;;23.80;65.30;;;;;;5092883;28;20493;-77
2021/09/15 11:41:16;;;;;;;8.88;7.80;;;23.80;61.10;;;;;;5080790;28;20059;-77
2021/09/15 11:43:47;;;;;;;11.65;8.25;;;23.90;62.50;;;;;;5073946;28;20419;-77
2021/09/15 11:46:13;;;;;;;12.05;7.95;;;23.90;62.90;;;;;;5091252;28;20020;-78
2021/09/15 11:48:41;;;;;;;8.80;7.93;;;23.90;62.50;;;;;;5093470;28;20024;-77
2021/09/15 11:51:15;;;;;;;11.60;7.50;;;23.90;63.40;;;;;;5099351;28;20084;-77
2021/09/15 11:53:47;;;;;;;11.55;7.95;;;23.90;62.10;;;;;;5089634;28;20068;-78
2021/09/15 11:56:18;;;;;;;9.30;7.60;;;23.90;59.80;;;;;;5092178;28;20047;-77
2021/09/15 11:58:45;;;;;;;12.02;8.13;;;23.90;61.90;;;;;;5088495;28;20092;-77
2021/09/15 12:01:14;;;;;;;8.65;7.70;;;23.90;62.50;;;;;;5092000;28;20031;-77
2021/09/15 12:03:43;;;;;;;8.98;7.38;;;23.90;64.50;;;;;;5092042;28;20155;-77
2021/09/15 12:06:09;;;;;;;10.98;8.65;;;24.00;63.40;;;;;;5091952;28;20023;-76
2021/09/15 12:08:35;;;;;;;9.32;7.85;;;24.00;63.20;;;;;;5092139;28;20024;-77
2021/09/15 12:11:01;;;;;;;8.20;7.38;;;24.00;61.40;;;;;;5093122;28;20034;-76
2021/09/15 12:13:31;;;;;;;8.38;6.85;;;24.00;59.50;;;;;;5091470;28;20587;-76
2021/09/15 12:15:57;;;;;;;7.45;6.68;;;24.10;58.00;;;;;;5093511;28;20021;-77
2021/09/15 12:18:41;;;;;;;8.23;6.80;;;24.10;60.50;;;;;;5090411;28;20475;-77
2021/09/15 12:21:18;;;;;;;7.28;6.55;;;24.10;59.70;;;;;;5080827;28;20055;-76
2021/09/15 12:23:44;;;;;;;7.40;6.70;;;24.30;59.60;;;;;;5091444;28;20047;-77
2021/09/15 12:26:11;;;;;;;7.28;6.68;;;24.30;59.50;;;;;;5108954;28;20081;-76
2021/09/15 12:28:37;;;;;;;7.07;6.20;;;24.40;60.90;;;;;;5097368;28;20021;-77
2021/09/15 12:31:18;;;;;;;7.00;6.13;;;24.50;58.70;;;;;;5109118;28;20032;-76
2021/09/15 12:33:43;;;;;;;8.70;6.45;;;24.50;59.40;;;;;;5077247;28;20028;-76
2021/09/15 12:36:19;;;;;;;7.90;6.38;;;24.60;58.50;;;;;;5087618;28;20118;-76
2021/09/15 12:38:55;;;;;;;7.18;6.00;;;24.60;56.80;;;;;;5106815;28;20036;-76
2021/09/15 12:41:21;;;;;;;7.28;5.70;;;24.60;55.70;;;;;;5092609;28;20028;-76
2021/09/15 12:43:47;;;;;;;9.52;6.13;;;24.60;56.10;;;;;;5103562;28;20020;-76